sensor_id;sensor_type;location;lat;lon;timestamp;pressure;altitude;pressure_sealevel;temperature;humidity
28344;BME280;15597;50.914;6.638;2023-04-27T00:00:03;101155.00;;;15.25;37.88
28344;BME280;15597;50.914;6.638;2023-04-27T00:02:34;101155.91;;;15.24;38.14
28344;BME280;15597;50.914;6.638;2023-04-27T00:05:00;101163.00;;;15.22;37.99
28344;BME280;15597;50.914;6.638;2023-04-27T00:07:26;101163.00;;;15.22;38.25
28344;BME280;15597;50.914;6.638;2023-04-27T00:09:52;101163.09;;;15.19;38.15
28344;BME280;15597;50.914;6.638;2023-04-27T00:12:18;101164.00;;;15.18;38.04
28344;BME280;15597;50.914;6.638;2023-04-27T00:14:43;101169.38;;;15.15;37.95
28344;BME280;15597;50.914;6.638;2023-04-27T00:17:09;101170.31;;;15.12;38.19
28344;BME280;15597;50.914;6.638;2023-04-27T00:19:35;101172.09;;;15.12;38.25
28344;BME280;15597;50.914;6.638;2023-04-27T00:22:01;101172.19;;;15.09;38.25
28344;BME280;15597;50.914;6.638;2023-04-27T00:24:26;101168.75;;;15.07;38.10
28344;BME280;15597;50.914;6.638;2023-04-27T00:26:52;101163.63;;;15.02;38.47
28344;BME280;15597;50.914;6.638;2023-04-27T00:29:17;101169.75;;;15.02;38.36
28344;BME280;15597;50.914;6.638;2023-04-27T00:31:43;101166.34;;;14.99;38.47
28344;BME280;15597;50.914;6.638;2023-04-27T00:34:09;101162.03;;;14.96;38.35
28344;BME280;15597;50.914;6.638;2023-04-27T00:36:34;101180.50;;;14.96;38.62
28344;BME280;15597;50.914;6.638;2023-04-27T00:39:02;101174.41;;;14.94;38.41
28344;BME280;15597;50.914;6.638;2023-04-27T00:41:30;101167.50;;;14.90;38.41
28344;BME280;15597;50.914;6.638;2023-04-27T00:43:57;101164.97;;;14.87;38.59
28344;BME280;15597;50.914;6.638;2023-04-27T00:46:23;101165.81;;;14.87;38.67
28344;BME280;15597;50.914;6.638;2023-04-27T00:48:49;101172.94;;;14.84;38.49
28344;BME280;15597;50.914;6.638;2023-04-27T00:51:15;101156.28;;;14.83;38.99
28344;BME280;15597;50.914;6.638;2023-04-27T00:53:42;101159.84;;;14.81;38.67
28344;BME280;15597;50.914;6.638;2023-04-27T00:56:07;101164.31;;;14.79;38.98
28344;BME280;15597;50.914;6.638;2023-04-27T00:58:33;101166.13;;;14.77;38.50
28344;BME280;15597;50.914;6.638;2023-04-27T01:00:59;101175.75;;;14.78;38.93
28344;BME280;15597;50.914;6.638;2023-04-27T01:03:25;101168.91;;;14.72;39.01
28344;BME280;15597;50.914;6.638;2023-04-27T01:05:51;101172.44;;;14.71;38.74
28344;BME280;15597;50.914;6.638;2023-04-27T01:08:17;101170.72;;;14.68;39.05
28344;BME280;15597;50.914;6.638;2023-04-27T01:10:43;101172.50;;;14.68;38.93
28344;BME280;15597;50.914;6.638;2023-04-27T01:13:09;101175.16;;;14.66;38.83
28344;BME280;15597;50.914;6.638;2023-04-27T01:15:36;101167.41;;;14.61;38.72
28344;BME280;15597;50.914;6.638;2023-04-27T01:18:02;101170.00;;;14.63;38.73
28344;BME280;15597;50.914;6.638;2023-04-27T01:20:28;101175.25;;;14.63;38.72
28344;BME280;15597;50.914;6.638;2023-04-27T01:22:57;101175.25;;;14.63;39.00
28344;BME280;15597;50.914;6.638;2023-04-27T01:25:23;101173.63;;;14.59;38.91
28344;BME280;15597;50.914;6.638;2023-04-27T01:27:49;101172.72;;;14.60;39.04
28344;BME280;15597;50.914;6.638;2023-04-27T01:30:14;101168.41;;;14.57;38.94
28344;BME280;15597;50.914;6.638;2023-04-27T01:32:40;101173.72;;;14.56;39.34
28344;BME280;15597;50.914;6.638;2023-04-27T01:35:06;101166.72;;;14.55;39.00
28344;BME280;15597;50.914;6.638;2023-04-27T01:37:32;101164.09;;;14.55;38.85
28344;BME280;15597;50.914;6.638;2023-04-27T01:39:57;101168.53;;;14.53;39.08
28344;BME280;15597;50.914;6.638;2023-04-27T01:42:23;101165.09;;;14.51;38.98
28344;BME280;15597;50.914;6.638;2023-04-27T01:44:48;101175.69;;;14.49;39.08
28344;BME280;15597;50.914;6.638;2023-04-27T01:47:15;101175.69;;;14.48;38.98
28344;BME280;15597;50.914;6.638;2023-04-27T01:49:42;101171.50;;;14.42;38.98
28344;BME280;15597;50.914;6.638;2023-04-27T01:52:07;101178.44;;;14.44;39.10
28344;BME280;15597;50.914;6.638;2023-04-27T01:54:33;101173.25;;;14.41;39.28
28344;BME280;15597;50.914;6.638;2023-04-27T01:56:59;101170.78;;;14.35;39.32
28344;BME280;15597;50.914;6.638;2023-04-27T01:59:26;101176.03;;;14.37;39.15
28344;BME280;15597;50.914;6.638;2023-04-27T02:01:53;101172.50;;;14.38;38.93
28344;BME280;15597;50.914;6.638;2023-04-27T02:04:19;101172.66;;;14.31;38.93
28344;BME280;15597;50.914;6.638;2023-04-27T02:06:45;101173.59;;;14.29;39.11
28344;BME280;15597;50.914;6.638;2023-04-27T02:09:12;101186.84;;;14.26;39.33
28344;BME280;15597;50.914;6.638;2023-04-27T02:11:39;101173.84;;;14.20;39.33
28344;BME280;15597;50.914;6.638;2023-04-27T02:14:05;101178.38;;;14.14;39.70
28344;BME280;15597;50.914;6.638;2023-04-27T02:16:31;101174.03;;;14.12;39.64
28344;BME280;15597;50.914;6.638;2023-04-27T02:18:57;101180.25;;;14.09;39.60
28344;BME280;15597;50.914;6.638;2023-04-27T02:21:23;101171.63;;;14.04;39.67
28344;BME280;15597;50.914;6.638;2023-04-27T02:23:49;101177.81;;;14.03;39.51
28344;BME280;15597;50.914;6.638;2023-04-27T02:26:17;101185.69;;;14.03;39.39
28344;BME280;15597;50.914;6.638;2023-04-27T02:28:47;101189.25;;;14.00;39.41
28344;BME280;15597;50.914;6.638;2023-04-27T02:31:13;101184.94;;;13.98;39.96
28344;BME280;15597;50.914;6.638;2023-04-27T02:33:40;101191.19;;;13.94;40.02
28344;BME280;15597;50.914;6.638;2023-04-27T02:36:08;101183.41;;;13.89;39.77
28344;BME280;15597;50.914;6.638;2023-04-27T02:38:34;101181.81;;;13.83;39.69
28344;BME280;15597;50.914;6.638;2023-04-27T02:41:00;101186.19;;;13.84;39.63
28344;BME280;15597;50.914;6.638;2023-04-27T02:43:26;101177.47;;;13.82;39.59
28344;BME280;15597;50.914;6.638;2023-04-27T02:45:52;101174.00;;;13.80;39.73
28344;BME280;15597;50.914;6.638;2023-04-27T02:48:17;101168.78;;;13.77;39.92
28344;BME280;15597;50.914;6.638;2023-04-27T02:50:44;101168.88;;;13.74;39.89
28344;BME280;15597;50.914;6.638;2023-04-27T02:53:10;101162.78;;;13.72;39.87
28344;BME280;15597;50.914;6.638;2023-04-27T02:55:37;101163.69;;;13.71;39.88
28344;BME280;15597;50.914;6.638;2023-04-27T02:58:03;101161.13;;;13.68;40.04
28344;BME280;15597;50.914;6.638;2023-04-27T03:00:29;101160.31;;;13.66;39.79
28344;BME280;15597;50.914;6.638;2023-04-27T03:02:55;101161.28;;;13.63;39.77
28344;BME280;15597;50.914;6.638;2023-04-27T03:05:21;101161.28;;;13.63;40.05
28344;BME280;15597;50.914;6.638;2023-04-27T03:07:47;101163.91;;;13.63;39.56
28344;BME280;15597;50.914;6.638;2023-04-27T03:10:12;101162.19;;;13.61;39.58
28344;BME280;15597;50.914;6.638;2023-04-27T03:12:38;101164.06;;;13.57;39.62
28344;BME280;15597;50.914;6.638;2023-04-27T03:15:03;101165.88;;;13.53;39.81
28344;BME280;15597;50.914;6.638;2023-04-27T03:17:29;101169.50;;;13.49;40.03
28344;BME280;15597;50.914;6.638;2023-04-27T03:19:55;101173.03;;;13.48;40.22
28344;BME280;15597;50.914;6.638;2023-04-27T03:22:22;101173.16;;;13.42;39.93
28344;BME280;15597;50.914;6.638;2023-04-27T03:24:48;101171.47;;;13.38;40.39
28344;BME280;15597;50.914;6.638;2023-04-27T03:27:14;101176.75;;;13.38;40.26
28344;BME280;15597;50.914;6.638;2023-04-27T03:29:41;101173.34;;;13.34;39.94
28344;BME280;15597;50.914;6.638;2023-04-27T03:32:06;101167.28;;;13.30;40.25
28344;BME280;15597;50.914;6.638;2023-04-27T03:34:32;101163.88;;;13.27;40.26
28344;BME280;15597;50.914;6.638;2023-04-27T03:36:57;101171.78;;;13.25;40.12
28344;BME280;15597;50.914;6.638;2023-04-27T03:39:23;101171.84;;;13.22;40.52
28344;BME280;15597;50.914;6.638;2023-04-27T03:41:49;101162.25;;;13.21;40.55
28344;BME280;15597;50.914;6.638;2023-04-27T03:44:14;101160.53;;;13.19;40.51
28344;BME280;15597;50.914;6.638;2023-04-27T03:46:40;101158.94;;;13.13;40.21
28344;BME280;15597;50.914;6.638;2023-04-27T03:49:06;101175.53;;;13.15;40.39
28344;BME280;15597;50.914;6.638;2023-04-27T03:51:32;101173.84;;;13.11;40.43
28344;BME280;15597;50.914;6.638;2023-04-27T03:53:58;101171.19;;;13.12;40.37
28344;BME280;15597;50.914;6.638;2023-04-27T03:56:24;101183.47;;;13.12;40.43
28344;BME280;15597;50.914;6.638;2023-04-27T03:58:50;101187.00;;;13.09;39.95
28344;BME280;15597;50.914;6.638;2023-04-27T04:01:18;101186.25;;;13.06;40.05
28344;BME280;15597;50.914;6.638;2023-04-27T04:03:44;101191.50;;;13.06;40.12
28344;BME280;15597;50.914;6.638;2023-04-27T04:06:10;101195.03;;;13.05;40.41
28344;BME280;15597;50.914;6.638;2023-04-27T04:08:36;101194.13;;;13.04;40.28
28344;BME280;15597;50.914;6.638;2023-04-27T04:11:02;101195.09;;;13.02;40.27
28344;BME280;15597;50.914;6.638;2023-04-27T04:13:28;101186.38;;;12.99;40.56
28344;BME280;15597;50.914;6.638;2023-04-27T04:16:05;101200.53;;;12.92;40.27
28344;BME280;15597;50.914;6.638;2023-04-27T04:18:32;101197.91;;;12.92;40.41
28344;BME280;15597;50.914;6.638;2023-04-27T04:20:57;101209.31;;;12.91;40.80
28344;BME280;15597;50.914;6.638;2023-04-27T04:23:23;101206.75;;;12.88;40.73
28344;BME280;15597;50.914;6.638;2023-04-27T04:25:49;101205.03;;;12.87;40.70
28344;BME280;15597;50.914;6.638;2023-04-27T04:28:16;101204.22;;;12.83;40.43
28344;BME280;15597;50.914;6.638;2023-04-27T04:30:41;101213.00;;;12.82;40.78
28344;BME280;15597;50.914;6.638;2023-04-27T04:33:08;101206.13;;;12.77;40.82
28344;BME280;15597;50.914;6.638;2023-04-27T04:35:38;101215.72;;;12.78;40.56
28344;BME280;15597;50.914;6.638;2023-04-27T04:38:04;101207.03;;;12.74;40.71
28344;BME280;15597;50.914;6.638;2023-04-27T04:40:30;101211.47;;;12.70;41.10
28344;BME280;15597;50.914;6.638;2023-04-27T04:42:56;101223.69;;;12.71;40.91
28344;BME280;15597;50.914;6.638;2023-04-27T04:45:21;101216.78;;;12.69;40.76
28344;BME280;15597;50.914;6.638;2023-04-27T04:47:49;101216.78;;;12.67;40.75
28344;BME280;15597;50.914;6.638;2023-04-27T04:50:16;101224.72;;;12.64;40.92
28344;BME280;15597;50.914;6.638;2023-04-27T04:52:41;101219.53;;;12.63;40.87
28344;BME280;15597;50.914;6.638;2023-04-27T04:55:07;101221.31;;;12.61;40.89
28344;BME280;15597;50.914;6.638;2023-04-27T04:57:33;101213.44;;;12.59;41.07
28344;BME280;15597;50.914;6.638;2023-04-27T04:59:58;101216.97;;;12.58;41.06
28344;BME280;15597;50.914;6.638;2023-04-27T05:02:26;101221.38;;;12.57;41.12
28344;BME280;15597;50.914;6.638;2023-04-27T05:04:51;101217.91;;;12.55;40.79
28344;BME280;15597;50.914;6.638;2023-04-27T05:07:17;101219.66;;;12.55;40.88
28344;BME280;15597;50.914;6.638;2023-04-27T05:09:42;101229.31;;;12.53;40.98
28344;BME280;15597;50.914;6.638;2023-04-27T05:12:08;101222.34;;;12.52;41.19
28344;BME280;15597;50.914;6.638;2023-04-27T05:14:34;101227.66;;;12.49;41.01
28344;BME280;15597;50.914;6.638;2023-04-27T05:17:00;101225.91;;;12.48;41.36
28344;BME280;15597;50.914;6.638;2023-04-27T05:19:29;101229.47;;;12.45;41.30
28344;BME280;15597;50.914;6.638;2023-04-27T05:21:56;101234.69;;;12.47;41.36
28344;BME280;15597;50.914;6.638;2023-04-27T05:24:22;101237.34;;;12.45;41.46
28344;BME280;15597;50.914;6.638;2023-04-27T05:26:47;101236.47;;;12.45;41.36
28344;BME280;15597;50.914;6.638;2023-04-27T05:29:13;101235.63;;;12.44;41.35
28344;BME280;15597;50.914;6.638;2023-04-27T05:31:38;101243.50;;;12.42;41.46
28344;BME280;15597;50.914;6.638;2023-04-27T05:34:04;101250.50;;;12.44;41.50
28344;BME280;15597;50.914;6.638;2023-04-27T05:36:30;101246.13;;;12.42;41.65
28344;BME280;15597;50.914;6.638;2023-04-27T05:38:55;101240.88;;;12.44;41.37
28344;BME280;15597;50.914;6.638;2023-04-27T05:41:21;101246.09;;;12.46;41.62
28344;BME280;15597;50.914;6.638;2023-04-27T05:43:48;101249.59;;;12.46;41.61
28344;BME280;15597;50.914;6.638;2023-04-27T05:46:13;101250.44;;;12.47;41.55
28344;BME280;15597;50.914;6.638;2023-04-27T05:48:39;101253.06;;;12.47;41.74
28344;BME280;15597;50.914;6.638;2023-04-27T05:51:05;101253.91;;;12.49;41.58
28344;BME280;15597;50.914;6.638;2023-04-27T05:53:34;101256.53;;;12.49;41.67
28344;BME280;15597;50.914;6.638;2023-04-27T05:56:03;101259.16;;;12.49;41.58
28344;BME280;15597;50.914;6.638;2023-04-27T05:58:32;101261.72;;;12.52;41.68
28344;BME280;15597;50.914;6.638;2023-04-27T06:01:01;101257.31;;;12.54;41.80
28344;BME280;15597;50.914;6.638;2023-04-27T06:03:29;101249.41;;;12.55;41.62
28344;BME280;15597;50.914;6.638;2023-04-27T06:05:56;101264.22;;;12.60;41.59
28344;BME280;15597;50.914;6.638;2023-04-27T06:08:22;101262.50;;;12.57;41.52
28344;BME280;15597;50.914;6.638;2023-04-27T06:10:49;101261.59;;;12.60;42.00
28344;BME280;15597;50.914;6.638;2023-04-27T06:13:15;101264.09;;;12.64;41.67
28344;BME280;15597;50.914;6.638;2023-04-27T06:15:41;101266.66;;;12.67;41.53
28344;BME280;15597;50.914;6.638;2023-04-27T06:18:07;101267.50;;;12.69;41.44
28344;BME280;15597;50.914;6.638;2023-04-27T06:20:33;101269.28;;;12.67;41.57
28344;BME280;15597;50.914;6.638;2023-04-27T06:23:00;101271.97;;;12.64;41.52
28344;BME280;15597;50.914;6.638;2023-04-27T06:25:26;101272.03;;;12.63;41.79
28344;BME280;15597;50.914;6.638;2023-04-27T06:27:56;101266.00;;;12.56;41.77
28344;BME280;15597;50.914;6.638;2023-04-27T06:30:23;101272.09;;;12.58;41.46
28344;BME280;15597;50.914;6.638;2023-04-27T06:32:49;101271.25;;;12.56;42.07
28344;BME280;15597;50.914;6.638;2023-04-27T06:35:16;101271.31;;;12.53;42.30
28344;BME280;15597;50.914;6.638;2023-04-27T06:37:42;101273.94;;;12.53;42.00
28344;BME280;15597;50.914;6.638;2023-04-27T06:40:07;101282.66;;;12.56;42.19
28344;BME280;15597;50.914;6.638;2023-04-27T06:42:33;101269.47;;;12.58;41.89
28344;BME280;15597;50.914;6.638;2023-04-27T06:44:59;101275.59;;;12.59;41.96
28344;BME280;15597;50.914;6.638;2023-04-27T06:47:25;101269.41;;;12.61;41.84
28344;BME280;15597;50.914;6.638;2023-04-27T06:49:50;101267.63;;;12.63;41.98
28344;BME280;15597;50.914;6.638;2023-04-27T06:52:16;101276.28;;;12.68;41.91
28344;BME280;15597;50.914;6.638;2023-04-27T06:54:41;101266.66;;;12.67;42.13
28344;BME280;15597;50.914;6.638;2023-04-27T06:57:07;101268.38;;;12.70;42.21
28344;BME280;15597;50.914;6.638;2023-04-27T06:59:33;101270.09;;;12.73;41.91
28344;BME280;15597;50.914;6.638;2023-04-27T07:01:58;101270.97;;;12.71;42.03
28344;BME280;15597;50.914;6.638;2023-04-27T07:04:24;101277.09;;;12.74;42.03
28344;BME280;15597;50.914;6.638;2023-04-27T07:06:50;101272.66;;;12.76;41.92
28344;BME280;15597;50.914;6.638;2023-04-27T07:09:15;101282.16;;;12.81;42.15
28344;BME280;15597;50.914;6.638;2023-04-27T07:11:41;101263.78;;;12.83;42.26
28344;BME280;15597;50.914;6.638;2023-04-27T07:14:06;101266.34;;;12.86;42.16
28344;BME280;15597;50.914;6.638;2023-04-27T07:16:32;101265.31;;;12.92;42.14
28344;BME280;15597;50.914;6.638;2023-04-27T07:18:58;101267.03;;;12.94;41.98
28344;BME280;15597;50.914;6.638;2023-04-27T07:21:23;101262.56;;;12.98;41.75
28344;BME280;15597;50.914;6.638;2023-04-27T07:23:49;101261.72;;;12.97;41.68
28344;BME280;15597;50.914;6.638;2023-04-27T07:26:15;101259.88;;;13.03;41.78
28344;BME280;15597;50.914;6.638;2023-04-27T07:28:41;101258.19;;;12.98;41.64
28344;BME280;15597;50.914;6.638;2023-04-27T07:31:06;101263.38;;;13.02;41.92
28344;BME280;15597;50.914;6.638;2023-04-27T07:33:33;101263.31;;;13.05;41.66
28344;BME280;15597;50.914;6.638;2023-04-27T07:35:58;101259.72;;;13.09;41.67
28344;BME280;15597;50.914;6.638;2023-04-27T07:38:24;101259.66;;;13.12;41.57
28344;BME280;15597;50.914;6.638;2023-04-27T07:40:51;101263.97;;;13.16;41.65
28344;BME280;15597;50.914;6.638;2023-04-27T07:43:17;101257.66;;;13.23;41.85
28344;BME280;15597;50.914;6.638;2023-04-27T07:45:43;101242.81;;;13.22;41.66
28344;BME280;15597;50.914;6.638;2023-04-27T07:48:09;101253.16;;;13.30;41.84
28344;BME280;15597;50.914;6.638;2023-04-27T07:50:35;101246.09;;;13.32;41.56
28344;BME280;15597;50.914;6.638;2023-04-27T07:53:01;101245.09;;;13.38;41.68
28344;BME280;15597;50.914;6.638;2023-04-27T07:55:26;101243.28;;;13.40;41.73
28344;BME280;15597;50.914;6.638;2023-04-27T07:57:53;101252.84;;;13.46;41.66
28344;BME280;15597;50.914;6.638;2023-04-27T08:00:20;101252.78;;;13.47;41.22
28344;BME280;15597;50.914;6.638;2023-04-27T08:02:46;101247.59;;;13.46;41.49
28344;BME280;15597;50.914;6.638;2023-04-27T08:05:12;101244.91;;;13.47;41.71
28344;BME280;15597;50.914;6.638;2023-04-27T08:07:38;101246.63;;;13.48;41.83
28344;BME280;15597;50.914;6.638;2023-04-27T08:10:05;101243.09;;;13.49;41.47
28344;BME280;15597;50.914;6.638;2023-04-27T08:12:31;101243.94;;;13.51;41.25
28344;BME280;15597;50.914;6.638;2023-04-27T08:14:57;101247.22;;;13.61;41.40
28344;BME280;15597;50.914;6.638;2023-04-27T08:17:23;101234.97;;;13.60;41.61
28344;BME280;15597;50.914;6.638;2023-04-27T08:19:48;101235.59;;;13.70;41.41
28344;BME280;15597;50.914;6.638;2023-04-27T08:22:14;101234.69;;;13.72;41.39
28344;BME280;15597;50.914;6.638;2023-04-27T08:24:39;101240.66;;;13.79;41.61
28344;BME280;15597;50.914;6.638;2023-04-27T08:27:05;101232.69;;;13.82;41.41
28344;BME280;15597;50.914;6.638;2023-04-27T08:29:31;101229.09;;;13.86;41.58
28344;BME280;15597;50.914;6.638;2023-04-27T08:31:58;101224.66;;;13.88;41.47
28344;BME280;15597;50.914;6.638;2023-04-27T08:34:25;101233.22;;;13.97;41.07
28344;BME280;15597;50.914;6.638;2023-04-27T08:36:50;101226.06;;;14.02;40.78
28344;BME280;15597;50.914;6.638;2023-04-27T08:39:16;101229.53;;;14.04;40.84
28344;BME280;15597;50.914;6.638;2023-04-27T08:41:42;101231.09;;;14.11;40.82
28344;BME280;15597;50.914;6.638;2023-04-27T08:44:08;101229.28;;;14.13;40.83
28344;BME280;15597;50.914;6.638;2023-04-27T08:46:35;101225.66;;;14.17;40.67
28344;BME280;15597;50.914;6.638;2023-04-27T08:49:01;101222.81;;;14.25;40.79
28344;BME280;15597;50.914;6.638;2023-04-27T08:51:27;101228.78;;;14.32;40.80
28344;BME280;15597;50.914;6.638;2023-04-27T08:53:55;101227.81;;;14.36;40.46
28344;BME280;15597;50.914;6.638;2023-04-27T08:56:22;101230.25;;;14.42;40.63
28344;BME280;15597;50.914;6.638;2023-04-27T08:58:49;101232.78;;;14.47;40.23
28344;BME280;15597;50.914;6.638;2023-04-27T09:01:16;101222.16;;;14.50;40.09
28344;BME280;15597;50.914;6.638;2023-04-27T09:03:42;101232.47;;;14.58;39.99
28344;BME280;15597;50.914;6.638;2023-04-27T09:06:07;101225.34;;;14.61;39.63
28344;BME280;15597;50.914;6.638;2023-04-27T09:09:02;101218.41;;;14.59;39.44
28344;BME280;15597;50.914;6.638;2023-04-27T09:11:31;101213.84;;;14.64;39.79
28344;BME280;15597;50.914;6.638;2023-04-27T09:13:59;101206.69;;;14.69;39.30
28344;BME280;15597;50.914;6.638;2023-04-27T09:16:27;101202.19;;;14.74;39.12
28344;BME280;15597;50.914;6.638;2023-04-27T09:18:54;101206.44;;;14.79;39.32
28344;BME280;15597;50.914;6.638;2023-04-27T09:21:21;101208.03;;;14.86;39.31
28344;BME280;15597;50.914;6.638;2023-04-27T09:23:47;101199.13;;;14.90;39.20
28344;BME280;15597;50.914;6.638;2023-04-27T09:26:19;101199.97;;;14.90;39.18
28344;BME280;15597;50.914;6.638;2023-04-27T09:28:47;101197.13;;;14.98;38.83
28344;BME280;15597;50.914;6.638;2023-04-27T09:31:14;101194.31;;;15.03;38.92
28344;BME280;15597;50.914;6.638;2023-04-27T09:33:39;101202.94;;;15.08;39.01
28344;BME280;15597;50.914;6.638;2023-04-27T09:36:06;101194.91;;;15.13;38.65
28344;BME280;15597;50.914;6.638;2023-04-27T09:38:32;101199.03;;;15.22;39.03
28344;BME280;15597;50.914;6.638;2023-04-27T09:40:58;101191.00;;;15.26;38.84
28344;BME280;15597;50.914;6.638;2023-04-27T09:43:24;101196.91;;;15.33;38.99
28344;BME280;15597;50.914;6.638;2023-04-27T09:45:52;101191.50;;;15.38;38.72
28344;BME280;15597;50.914;6.638;2023-04-27T09:48:20;101185.22;;;15.42;38.89
28344;BME280;15597;50.914;6.638;2023-04-27T09:50:47;101199.03;;;15.50;38.58
28344;BME280;15597;50.914;6.638;2023-04-27T09:53:14;101188.28;;;15.56;38.91
28344;BME280;15597;50.914;6.638;2023-04-27T09:58:54;101186.41;;;15.60;38.61
28344;BME280;15597;50.914;6.638;2023-04-27T10:04:24;101190.28;;;15.75;38.45
28344;BME280;15597;50.914;6.638;2023-04-27T10:09:25;101183.78;;;15.85;38.15
28344;BME280;15597;50.914;6.638;2023-04-27T10:11:53;101178.38;;;15.91;37.95
28344;BME280;15597;50.914;6.638;2023-04-27T10:14:23;101171.88;;;16.00;38.07
28344;BME280;15597;50.914;6.638;2023-04-27T10:16:56;101164.84;;;16.01;38.28
28344;BME280;15597;50.914;6.638;2023-04-27T10:19:23;101178.56;;;16.11;38.15
28344;BME280;15597;50.914;6.638;2023-04-27T10:21:56;101174.91;;;16.15;37.97
28344;BME280;15597;50.914;6.638;2023-04-27T10:24:35;101170.38;;;16.18;37.40
28344;BME280;15597;50.914;6.638;2023-04-27T10:27:02;101166.50;;;16.29;37.42
28344;BME280;15597;50.914;6.638;2023-04-27T10:29:41;101161.31;;;16.26;37.50
28344;BME280;15597;50.914;6.638;2023-04-27T10:32:28;101152.47;;;16.27;37.48
28344;BME280;15597;50.914;6.638;2023-04-27T10:35:04;101150.31;;;16.38;37.05
28344;BME280;15597;50.914;6.638;2023-04-27T10:37:40;101146.41;;;16.48;37.35
28344;BME280;15597;50.914;6.638;2023-04-27T10:40:08;101139.06;;;16.57;37.48
28344;BME280;15597;50.914;6.638;2023-04-27T10:42:48;101135.25;;;16.64;37.29
28344;BME280;15597;50.914;6.638;2023-04-27T10:45:25;101138.47;;;16.72;37.14
28344;BME280;15597;50.914;6.638;2023-04-27T10:47:57;101139.94;;;16.79;37.49
28344;BME280;15597;50.914;6.638;2023-04-27T10:50:24;101137.75;;;16.91;37.38
28344;BME280;15597;50.914;6.638;2023-04-27T10:52:49;101147.22;;;16.97;37.13
28344;BME280;15597;50.914;6.638;2023-04-27T10:55:17;101141.06;;;16.96;36.93
28344;BME280;15597;50.914;6.638;2023-04-27T11:00:12;101143.19;;;17.10;37.01
28344;BME280;15597;50.914;6.638;2023-04-27T11:02:38;101138.41;;;17.20;37.18
28344;BME280;15597;50.914;6.638;2023-04-27T11:05:16;101131.16;;;17.25;36.50
28344;BME280;15597;50.914;6.638;2023-04-27T11:07:41;101137.72;;;17.37;36.69
28344;BME280;15597;50.914;6.638;2023-04-27T11:10:08;101134.94;;;17.40;36.57
28344;BME280;15597;50.914;6.638;2023-04-27T11:12:35;101132.25;;;17.42;36.33
28344;BME280;15597;50.914;6.638;2023-04-27T11:15:00;101126.69;;;17.48;35.98
28344;BME280;15597;50.914;6.638;2023-04-27T11:17:28;101128.28;;;17.52;36.39
28344;BME280;15597;50.914;6.638;2023-04-27T11:19:53;101122.59;;;17.61;36.11
28344;BME280;15597;50.914;6.638;2023-04-27T11:22:19;101122.06;;;17.74;36.44
28344;BME280;15597;50.914;6.638;2023-04-27T11:24:49;101124.25;;;17.85;36.07
28344;BME280;15597;50.914;6.638;2023-04-27T11:27:15;101125.50;;;17.96;35.97
28344;BME280;15597;50.914;6.638;2023-04-27T11:29:41;101119.91;;;18.04;35.83
28344;BME280;15597;50.914;6.638;2023-04-27T11:32:07;101111.63;;;18.12;34.93
28344;BME280;15597;50.914;6.638;2023-04-27T11:34:32;101107.63;;;18.22;35.60
28344;BME280;15597;50.914;6.638;2023-04-27T11:37:04;101105.63;;;18.28;35.22
28344;BME280;15597;50.914;6.638;2023-04-27T11:39:36;101105.63;;;18.28;35.67
28344;BME280;15597;50.914;6.638;2023-04-27T11:42:22;101105.84;;;18.23;35.70
28344;BME280;15597;50.914;6.638;2023-04-27T11:44:58;101095.25;;;18.23;35.37
28344;BME280;15597;50.914;6.638;2023-04-27T11:47:26;101091.31;;;18.32;35.51
28344;BME280;15597;50.914;6.638;2023-04-27T11:49:57;101084.03;;;18.37;34.83
28344;BME280;15597;50.914;6.638;2023-04-27T11:52:31;101077.22;;;18.50;34.66
28344;BME280;15597;50.914;6.638;2023-04-27T11:54:58;101080.06;;;18.65;34.88
28344;BME280;15597;50.914;6.638;2023-04-27T11:57:26;101084.28;;;18.69;34.71
28344;BME280;15597;50.914;6.638;2023-04-27T11:59:52;101085.72;;;18.76;34.56
28344;BME280;15597;50.914;6.638;2023-04-27T12:02:19;101079.97;;;18.86;34.56
28344;BME280;15597;50.914;6.638;2023-04-27T12:04:46;101080.25;;;18.79;35.29
28344;BME280;15597;50.914;6.638;2023-04-27T12:07:13;101085.69;;;18.95;35.09
28344;BME280;15597;50.914;6.638;2023-04-27T12:09:39;101075.91;;;18.96;34.52
28344;BME280;15597;50.914;6.638;2023-04-27T12:12:05;101080.81;;;19.05;34.65
28344;BME280;15597;50.914;6.638;2023-04-27T12:14:32;101064.84;;;19.07;34.78
28344;BME280;15597;50.914;6.638;2023-04-27T12:16:58;101068.06;;;19.14;34.85
28344;BME280;15597;50.914;6.638;2023-04-27T12:19:23;101075.91;;;19.15;34.64
28344;BME280;15597;50.914;6.638;2023-04-27T12:21:54;101067.28;;;19.11;35.22
28344;BME280;15597;50.914;6.638;2023-04-27T12:24:20;101072.03;;;19.22;35.18
28344;BME280;15597;50.914;6.638;2023-04-27T12:26:47;101066.66;;;19.24;34.99
28344;BME280;15597;50.914;6.638;2023-04-27T12:29:13;101060.09;;;19.31;34.84
28344;BME280;15597;50.914;6.638;2023-04-27T12:31:39;101064.78;;;19.44;34.91
28344;BME280;15597;50.914;6.638;2023-04-27T12:34:05;101063.91;;;19.43;34.55
28344;BME280;15597;50.914;6.638;2023-04-27T12:36:30;101065.31;;;19.50;34.82
28344;BME280;15597;50.914;6.638;2023-04-27T12:38:59;101068.56;;;19.55;34.94
28344;BME280;15597;50.914;6.638;2023-04-27T12:41:26;101069.34;;;19.58;34.51
28344;BME280;15597;50.914;6.638;2023-04-27T12:43:51;101065.84;;;19.57;34.54
28344;BME280;15597;50.914;6.638;2023-04-27T12:46:17;101054.59;;;19.69;34.36
28344;BME280;15597;50.914;6.638;2023-04-27T12:48:43;101059.13;;;19.67;34.27
28344;BME280;15597;50.914;6.638;2023-04-27T12:51:09;101056.63;;;19.64;33.97
28344;BME280;15597;50.914;6.638;2023-04-27T12:53:35;101060.63;;;19.73;33.92
28344;BME280;15597;50.914;6.638;2023-04-27T12:56:01;101059.56;;;19.76;33.88
28344;BME280;15597;50.914;6.638;2023-04-27T12:58:27;101045.91;;;19.83;34.04